createdAt,value
2018-09-22T00:02:00.716Z,99.90
2018-09-22T00:04:29.528Z,99.90
2018-09-22T00:06:58.078Z,99.90
2018-09-22T00:09:26.657Z,99.90
2018-09-22T00:11:55.195Z,99.90
2018-09-22T00:14:23.725Z,99.90
2018-09-22T00:16:52.286Z,99.90
2018-09-22T00:19:20.855Z,99.90
2018-09-22T00:21:49.466Z,99.90
2018-09-22T00:24:17.950Z,99.90
2018-09-22T00:26:46.535Z,99.90
2018-09-22T00:29:15.280Z,99.90
2018-09-22T00:31:43.742Z,99.90
2018-09-22T00:34:12.234Z,99.90
2018-09-22T00:36:40.730Z,99.90
2018-09-22T00:39:10.431Z,99.90
2018-09-22T00:41:39.145Z,99.90
2018-09-22T00:44:08.701Z,99.90
2018-09-22T00:46:37.314Z,99.90
2018-09-22T00:49:06.054Z,99.90
2018-09-22T00:51:34.580Z,99.90
2018-09-22T00:54:03.239Z,99.90
2018-09-22T00:56:31.829Z,99.90
2018-09-22T00:59:00.341Z,99.90
2018-09-22T01:01:28.930Z,99.90
2018-09-22T01:03:57.583Z,99.90
2018-09-22T01:06:26.246Z,99.90
2018-09-22T01:08:55.164Z,99.90
2018-09-22T01:11:25.011Z,99.90
2018-09-22T01:13:54.079Z,99.90
2018-09-22T01:16:26.682Z,99.90
2018-09-22T01:18:55.402Z,99.90
2018-09-22T01:21:24.085Z,99.90
2018-09-22T01:23:52.656Z,99.90
2018-09-22T01:26:21.423Z,99.90
2018-09-22T01:28:50.338Z,99.90
2018-09-22T01:31:18.958Z,99.90
2018-09-22T01:33:47.861Z,99.90
2018-09-22T01:36:16.656Z,99.90
2018-09-22T01:38:45.492Z,99.90
2018-09-22T01:41:14.324Z,99.90
2018-09-22T01:43:43.182Z,99.90
2018-09-22T01:46:11.922Z,99.90
2018-09-22T01:48:40.623Z,99.90
2018-09-22T01:51:09.272Z,99.90
2018-09-22T01:53:37.956Z,99.90
2018-09-22T01:56:06.810Z,99.90
2018-09-22T01:58:35.463Z,99.90
2018-09-22T02:01:04.267Z,99.90
2018-09-22T02:03:32.764Z,99.90
2018-09-22T02:06:01.346Z,99.90
2018-09-22T02:08:30.043Z,99.90
2018-09-22T02:10:58.575Z,99.90
2018-09-22T02:13:27.227Z,99.90
2018-09-22T02:15:55.780Z,99.90
2018-09-22T02:18:24.395Z,99.90
2018-09-22T02:20:52.926Z,99.90
2018-09-22T02:23:21.499Z,99.90
2018-09-22T02:25:50.039Z,99.90
2018-09-22T02:28:18.598Z,99.90
2018-09-22T02:30:47.137Z,99.90
2018-09-22T02:33:15.826Z,99.90
2018-09-22T02:35:44.646Z,99.90
2018-09-22T02:38:13.299Z,99.90
2018-09-22T02:40:41.891Z,99.90
2018-09-22T02:43:10.600Z,99.90
2018-09-22T02:45:39.200Z,99.90
2018-09-22T02:48:07.753Z,99.90
2018-09-22T02:50:36.290Z,99.90
2018-09-22T02:53:04.838Z,99.90
2018-09-22T02:55:33.367Z,99.90
2018-09-22T02:58:01.917Z,99.90
2018-09-22T03:00:30.564Z,99.90
2018-09-22T03:02:59.205Z,99.90
2018-09-22T03:05:27.845Z,99.90
2018-09-22T03:07:56.358Z,99.90
2018-09-22T03:10:24.871Z,99.90
2018-09-22T03:12:53.353Z,99.90
2018-09-22T03:15:22.035Z,99.90
2018-09-22T03:17:50.709Z,99.90
2018-09-22T03:20:19.368Z,99.90
2018-09-22T03:22:48.049Z,99.90
2018-09-22T03:25:16.599Z,99.90
2018-09-22T03:27:45.595Z,99.90
2018-09-22T03:30:14.247Z,99.90
2018-09-22T03:32:42.754Z,99.90
2018-09-22T03:35:12.204Z,99.90
2018-09-22T03:37:40.821Z,99.90
2018-09-22T03:40:09.479Z,99.90
2018-09-22T03:42:38.291Z,99.90
2018-09-22T03:45:06.884Z,99.90
2018-09-22T03:47:35.714Z,99.90
2018-09-22T03:50:04.301Z,99.90
2018-09-22T03:52:33.729Z,99.90
2018-09-22T03:55:02.478Z,99.90
2018-09-22T03:57:31.162Z,99.90
2018-09-22T03:59:59.867Z,99.90
2018-09-22T04:02:28.520Z,99.90
2018-09-22T04:04:57.227Z,99.90
2018-09-22T04:07:25.845Z,99.90
2018-09-22T04:09:54.374Z,99.90
2018-09-22T04:12:22.999Z,99.90
2018-09-22T04:14:51.722Z,99.90
2018-09-22T04:17:20.433Z,99.90
2018-09-22T04:19:49.372Z,99.90
2018-09-22T04:22:18.246Z,99.90
2018-09-22T04:24:46.851Z,99.90
2018-09-22T04:27:15.523Z,99.90
2018-09-22T04:29:44.195Z,99.90
2018-09-22T04:32:12.880Z,99.90
2018-09-22T04:34:41.472Z,99.90
2018-09-22T04:37:10.087Z,99.90
2018-09-22T04:39:38.706Z,99.90
2018-09-22T04:42:07.553Z,99.90
2018-09-22T04:44:36.205Z,99.90
2018-09-22T04:47:04.741Z,99.90
2018-09-22T04:49:33.428Z,99.90
2018-09-22T04:52:02.027Z,99.90
2018-09-22T04:54:30.550Z,99.90
2018-09-22T04:56:59.121Z,99.90
2018-09-22T04:59:27.879Z,99.90
2018-09-22T05:01:57.173Z,99.90
2018-09-22T05:04:26.148Z,99.90
2018-09-22T05:06:55.236Z,99.90
2018-09-22T05:09:24.453Z,99.90
2018-09-22T05:11:53.659Z,99.90
2018-09-22T05:14:22.953Z,99.90
2018-09-22T05:16:52.273Z,99.90
2018-09-22T05:19:21.752Z,99.90
2018-09-22T05:21:51.969Z,99.90
2018-09-22T05:24:21.147Z,99.90
2018-09-22T05:26:50.350Z,99.90
2018-09-22T05:29:19.176Z,99.90
2018-09-22T05:31:48.301Z,99.90
2018-09-22T05:34:17.337Z,99.90
2018-09-22T05:36:46.288Z,99.90
2018-09-22T05:39:15.552Z,99.90
2018-09-22T05:41:44.639Z,99.90
2018-09-22T05:44:13.606Z,99.90
2018-09-22T05:46:42.691Z,99.90
2018-09-22T05:49:11.726Z,99.90
2018-09-22T05:51:40.871Z,99.90
2018-09-22T05:54:14.044Z,99.90
2018-09-22T05:56:45.513Z,99.90
2018-09-22T06:00:13.189Z,99.90
2018-09-22T06:03:03.843Z,99.90
2018-09-22T06:05:37.002Z,99.90
2018-09-22T06:08:11.084Z,99.90
2018-09-22T06:10:40.016Z,99.90
2018-09-22T06:13:09.235Z,99.90
2018-09-22T06:15:38.638Z,99.90
2018-09-22T06:18:07.911Z,99.90
2018-09-22T06:20:36.969Z,99.90
2018-09-22T06:23:06.083Z,99.90
2018-09-22T06:25:35.159Z,99.90
2018-09-22T06:28:04.107Z,99.90
2018-09-22T06:30:33.054Z,99.90
2018-09-22T06:33:03.297Z,99.90
2018-09-22T06:35:32.360Z,99.90
2018-09-22T06:38:12.491Z,99.90
2018-09-22T06:40:47.983Z,99.90
2018-09-22T06:43:17.722Z,99.90
2018-09-22T06:45:57.569Z,99.90
2018-09-22T06:49:03.062Z,99.90
2018-09-22T06:51:42.727Z,99.90
2018-09-22T06:54:11.552Z,99.90
2018-09-22T06:56:40.419Z,99.90
2018-09-22T06:59:09.754Z,99.90
2018-09-22T07:01:38.575Z,99.90
2018-09-22T07:04:07.830Z,99.90
2018-09-22T07:06:36.823Z,99.90
2018-09-22T07:09:07.406Z,99.90
2018-09-22T07:11:36.305Z,99.90
2018-09-22T07:14:37.553Z,99.90
2018-09-22T07:19:50.951Z,99.90
2018-09-22T07:22:25.098Z,99.90
2018-09-22T07:24:54.545Z,99.90
2018-09-22T07:30:11.983Z,99.90
2018-09-22T07:32:42.030Z,99.90
2018-09-22T07:35:11.916Z,99.90
2018-09-22T07:37:40.930Z,99.90
2018-09-22T07:40:09.670Z,99.90
2018-09-22T07:42:38.755Z,99.90
2018-09-22T07:45:07.475Z,99.90
2018-09-22T07:47:36.578Z,99.90
2018-09-22T07:50:06.840Z,99.90
2018-09-22T07:52:35.886Z,98.60
2018-09-22T07:57:41.297Z,95.90
2018-09-22T08:00:10.655Z,96.10
2018-09-22T08:02:40.084Z,96.80
2018-09-22T08:05:09.607Z,94.90
2018-09-22T08:07:38.891Z,92.90
2018-09-22T08:10:08.283Z,92.60
2018-09-22T08:12:37.675Z,92.30
2018-09-22T08:24:50.147Z,91.60
2018-09-22T08:27:18.637Z,92.70
2018-09-22T08:29:47.210Z,86.60
2018-09-22T08:32:15.868Z,90.10
2018-09-22T08:34:44.435Z,86.30
2018-09-22T08:37:13.088Z,86.20
2018-09-22T08:39:42.247Z,87.30
2018-09-22T08:42:10.990Z,88.10
2018-09-22T08:44:39.662Z,82.60
2018-09-22T08:47:08.723Z,84.40
2018-09-22T08:49:37.321Z,79.60
2018-09-22T08:52:05.887Z,82.30
2018-09-22T08:54:35.113Z,80.30
2018-09-22T08:57:04.082Z,78.20
2018-09-22T08:59:33.110Z,82.10
2018-09-22T09:02:01.828Z,83.20
2018-09-22T09:04:31.064Z,80.90
2018-09-22T09:06:59.645Z,81.00
2018-09-22T09:09:28.315Z,68.90
2018-09-22T09:11:57.217Z,70.10
2018-09-22T09:14:26.462Z,73.60
2018-09-22T09:16:55.326Z,73.40
2018-09-22T09:19:25.455Z,74.80
2018-09-22T09:21:54.489Z,74.20
2018-09-22T09:24:23.282Z,72.80
2018-09-22T09:26:52.427Z,79.50
2018-09-22T09:29:21.160Z,88.50
2018-09-22T09:31:49.668Z,77.90
2018-09-22T09:34:18.620Z,81.90
2018-09-22T09:36:47.092Z,84.20
2018-09-22T09:39:15.603Z,69.60
2018-09-22T09:41:44.077Z,85.00
2018-09-22T09:44:12.708Z,81.60
2018-09-22T09:46:41.919Z,70.70
2018-09-22T09:49:10.437Z,70.60
2018-09-22T09:51:38.963Z,71.40
2018-09-22T09:54:08.782Z,72.40
2018-09-22T09:56:37.788Z,71.60
2018-09-22T09:59:06.884Z,68.80
2018-09-22T10:01:35.950Z,65.50
2018-09-22T10:04:05.212Z,69.40
2018-09-22T10:09:39.420Z,69.70
2018-09-22T10:12:08.759Z,73.30
2018-09-22T10:14:38.014Z,68.30
2018-09-22T10:17:06.801Z,71.40
2018-09-22T10:19:35.692Z,77.20
2018-09-22T10:22:04.735Z,73.50
2018-09-22T10:24:33.932Z,74.20
2018-09-22T10:27:03.081Z,74.90
2018-09-22T10:29:32.076Z,74.40
2018-09-22T10:32:01.306Z,71.00
2018-09-22T10:34:30.675Z,70.50
2018-09-22T10:36:59.832Z,75.50
2018-09-22T10:39:35.447Z,74.00
2018-09-22T10:42:04.723Z,74.40
2018-09-22T10:44:35.271Z,69.60
2018-09-22T10:47:04.446Z,70.20
2018-09-22T10:49:33.235Z,72.80
2018-09-22T10:52:03.851Z,76.70
2018-09-22T10:54:32.784Z,70.50
2018-09-22T10:57:30.762Z,68.50
2018-09-22T11:00:03.307Z,72.50
2018-09-22T11:02:35.537Z,65.90
2018-09-22T11:06:41.748Z,70.10
2018-09-22T11:09:10.842Z,68.10
2018-09-22T11:11:47.041Z,65.70
2018-09-22T11:14:18.386Z,63.00
2018-09-22T11:16:47.459Z,65.20
2018-09-22T11:19:20.020Z,63.40
2018-09-22T11:21:50.599Z,63.80
2018-09-22T11:24:20.055Z,63.20
2018-09-22T11:26:49.216Z,66.80
2018-09-22T11:29:18.931Z,64.00
2018-09-22T11:31:47.905Z,66.00
2018-09-22T11:34:17.772Z,64.80
2018-09-22T11:36:46.662Z,64.80
2018-09-22T11:39:15.855Z,63.80
2018-09-22T11:41:44.460Z,65.50
2018-09-22T11:44:13.869Z,67.20
2018-09-22T11:46:42.694Z,65.30
2018-09-22T11:49:11.422Z,63.10
2018-09-22T11:51:40.271Z,63.70
2018-09-22T11:54:11.545Z,60.50
2018-09-22T11:56:40.305Z,57.70
2018-09-22T11:59:11.251Z,57.50
2018-09-22T12:01:45.813Z,61.40
2018-09-22T12:04:22.252Z,55.40
2018-09-22T12:06:51.110Z,55.30
2018-09-22T12:09:19.699Z,56.90
2018-09-22T12:11:48.415Z,58.00
2018-09-22T12:14:17.325Z,58.60
2018-09-22T12:16:45.927Z,57.10
2018-09-22T12:19:14.665Z,57.80
2018-09-22T12:21:43.424Z,52.90
2018-09-22T12:24:11.996Z,54.40
2018-09-22T12:26:40.764Z,56.20
2018-09-22T12:29:09.309Z,53.90
2018-09-22T12:34:24.176Z,55.70
2018-09-22T12:36:55.528Z,55.10
2018-09-22T12:39:24.346Z,57.00
2018-09-22T12:44:34.173Z,52.20
2018-09-22T12:47:04.137Z,54.60
2018-09-22T12:49:32.759Z,52.10
2018-09-22T12:52:01.356Z,51.20
2018-09-22T12:54:34.406Z,52.10
2018-09-22T12:57:02.950Z,53.10
2018-09-22T12:59:31.812Z,53.30
2018-09-22T13:02:00.727Z,52.50
2018-09-22T13:04:29.562Z,52.00
2018-09-22T13:06:58.216Z,49.20
2018-09-22T13:09:26.738Z,48.30
2018-09-22T13:11:55.294Z,47.80
2018-09-22T13:14:23.870Z,49.40
2018-09-22T13:16:53.726Z,46.30
2018-09-22T13:19:23.511Z,45.60
2018-09-22T13:21:52.387Z,46.80
2018-09-22T13:24:20.988Z,45.00
2018-09-22T13:26:49.547Z,45.80
2018-09-22T13:29:18.054Z,45.30
2018-09-22T13:31:47.568Z,46.20
2018-09-22T13:34:16.081Z,46.70
2018-09-22T13:36:44.863Z,43.40
2018-09-22T13:39:13.892Z,43.10
2018-09-22T13:41:42.567Z,46.10
2018-09-22T13:44:11.054Z,44.90
2018-09-22T13:46:40.350Z,45.90
2018-09-22T13:49:08.912Z,43.90
2018-09-22T13:51:37.567Z,44.80
2018-09-22T13:54:06.015Z,44.30
2018-09-22T13:56:34.905Z,46.60
2018-09-22T13:59:03.356Z,45.60
2018-09-22T14:01:31.918Z,45.70
2018-09-22T14:04:00.391Z,43.10
2018-09-22T14:06:29.037Z,46.00
2018-09-22T14:08:57.726Z,46.80
2018-09-22T14:11:26.338Z,46.50
2018-09-22T14:13:54.823Z,45.20
2018-09-22T14:16:23.299Z,46.20
2018-09-22T14:18:51.779Z,43.10
2018-09-22T14:21:20.322Z,43.30
2018-09-22T14:23:48.739Z,47.20
2018-09-22T14:26:17.205Z,46.80
2018-09-22T14:28:45.775Z,48.90
2018-09-22T14:31:14.227Z,44.80
2018-09-22T14:33:43.024Z,45.20
2018-09-22T14:36:11.491Z,44.90
2018-09-22T14:38:39.954Z,45.70
2018-09-22T14:41:08.745Z,47.80
2018-09-22T14:43:37.432Z,47.20
2018-09-22T14:46:05.942Z,48.90
2018-09-22T14:48:34.683Z,49.10
2018-09-22T14:51:05.952Z,49.90
2018-09-22T14:53:34.783Z,47.70
2018-09-22T14:56:03.619Z,50.80
2018-09-22T14:58:32.271Z,51.50
2018-09-22T15:01:01.028Z,54.40
2018-09-22T15:03:35.791Z,53.30
2018-09-22T15:06:04.623Z,54.50
2018-09-22T15:08:33.785Z,54.90
2018-09-22T15:11:02.700Z,55.10
2018-09-22T15:13:38.663Z,55.70
2018-09-22T15:16:07.824Z,57.20
2018-09-22T15:18:36.718Z,57.00
2018-09-22T15:21:05.545Z,56.00
2018-09-22T15:23:34.493Z,56.90
2018-09-22T15:26:03.196Z,57.80
2018-09-22T15:28:31.967Z,58.30
2018-09-22T15:31:00.426Z,58.40
2018-09-22T15:33:29.032Z,56.30
2018-09-22T15:35:57.642Z,54.70
2018-09-22T15:38:26.123Z,54.10
2018-09-22T15:40:55.692Z,54.40
2018-09-22T15:43:24.770Z,55.20
2018-09-22T15:45:53.279Z,54.90
2018-09-22T15:48:22.247Z,54.90
2018-09-22T15:50:50.698Z,53.70
2018-09-22T15:53:19.935Z,54.40
2018-09-22T15:55:48.447Z,55.20
2018-09-22T15:58:17.998Z,54.80
2018-09-22T16:00:46.523Z,54.60
2018-09-22T16:03:16.753Z,55.40
2018-09-22T16:05:45.313Z,56.00
2018-09-22T16:08:14.728Z,55.30
2018-09-22T16:10:43.472Z,55.80
2018-09-22T16:13:12.694Z,55.60
2018-09-22T16:15:41.218Z,55.50
2018-09-22T16:18:09.766Z,55.20
2018-09-22T16:20:38.898Z,56.60
2018-09-22T16:25:57.948Z,57.50
2018-09-22T16:28:26.886Z,58.30
2018-09-22T16:30:56.610Z,59.60
2018-09-22T16:33:25.223Z,59.00
2018-09-22T16:35:54.031Z,60.10
2018-09-22T16:38:22.605Z,59.50
2018-09-22T16:40:51.363Z,62.30
2018-09-22T16:43:19.905Z,62.20
2018-09-22T16:45:48.597Z,65.00
2018-09-22T16:48:17.063Z,66.60
2018-09-22T16:50:45.618Z,67.00
2018-09-22T16:53:14.149Z,66.00
2018-09-22T16:55:42.742Z,67.30
2018-09-22T16:58:11.350Z,67.70
2018-09-22T17:00:39.923Z,69.60
2018-09-22T17:03:08.443Z,70.20
2018-09-22T17:05:37.031Z,68.70
2018-09-22T17:08:05.542Z,69.50
2018-09-22T17:10:34.034Z,68.80
2018-09-22T17:13:04.650Z,70.00
2018-09-22T17:15:33.154Z,71.30
2018-09-22T17:18:01.657Z,70.30
2018-09-22T17:20:32.814Z,70.80
2018-09-22T17:23:01.285Z,71.50
2018-09-22T17:25:29.802Z,73.30
2018-09-22T17:27:58.250Z,73.30
2018-09-22T17:30:27.378Z,73.80
2018-09-22T17:32:55.830Z,74.40
2018-09-22T17:35:24.371Z,75.40
2018-09-22T17:37:53.565Z,76.20
2018-09-22T17:40:23.004Z,76.20
2018-09-22T17:42:51.485Z,78.90
2018-09-22T17:45:20.795Z,82.10
2018-09-22T17:47:49.437Z,79.70
2018-09-22T17:50:18.697Z,80.00
2018-09-22T17:52:47.395Z,80.90
2018-09-22T17:55:15.879Z,79.40
2018-09-22T17:57:44.383Z,81.20
2018-09-22T18:00:12.830Z,82.10
2018-09-22T18:02:41.327Z,81.10
2018-09-22T18:05:09.815Z,80.60
2018-09-22T18:07:38.424Z,81.20
2018-09-22T18:10:07.982Z,83.10
2018-09-22T18:12:37.300Z,83.70
2018-09-22T18:15:09.190Z,84.00
2018-09-22T18:17:37.659Z,84.90
2018-09-22T18:20:07.020Z,84.50
2018-09-22T18:22:35.459Z,85.50
2018-09-22T18:25:03.946Z,85.40
2018-09-22T18:27:33.159Z,87.20
2018-09-22T18:30:02.762Z,87.10
2018-09-22T18:32:31.529Z,88.00
2018-09-22T18:35:00.024Z,88.50
2018-09-22T18:37:28.455Z,87.50
2018-09-22T18:39:57.488Z,88.00
2018-09-22T18:42:25.918Z,89.20
2018-09-22T18:44:54.648Z,91.90
2018-09-22T18:47:23.220Z,92.00
2018-09-22T18:49:51.702Z,90.70
2018-09-22T18:52:20.174Z,91.00
2018-09-22T18:54:48.619Z,90.80
2018-09-22T18:57:17.086Z,91.50
2018-09-22T18:59:45.650Z,91.70
2018-09-22T19:02:14.152Z,92.20
2018-09-22T19:04:43.226Z,92.90
2018-09-22T19:07:11.712Z,93.20
2018-09-22T19:09:40.217Z,93.70
2018-09-22T19:12:08.917Z,95.10
2018-09-22T19:14:45.222Z,94.80
2018-09-22T19:17:48.584Z,95.70
2018-09-22T19:20:20.994Z,97.70
2018-09-22T19:22:52.660Z,97.50
2018-09-22T19:25:23.755Z,98.90
2018-09-22T19:27:55.930Z,99.90
2018-09-22T19:30:28.210Z,99.90
2018-09-22T19:33:03.358Z,99.90
2018-09-22T19:35:38.103Z,99.90
2018-09-22T19:38:13.704Z,99.90
2018-09-22T19:40:46.012Z,99.90
2018-09-22T19:43:20.116Z,99.90
2018-09-22T19:45:51.231Z,99.90
2018-09-22T19:48:34.247Z,99.90
2018-09-22T19:51:06.138Z,99.90
2018-09-22T19:53:34.696Z,99.90
2018-09-22T19:56:03.175Z,99.90
2018-09-22T19:58:31.662Z,99.90
2018-09-22T20:01:00.111Z,99.90
2018-09-22T20:03:28.571Z,99.90
2018-09-22T20:05:57.071Z,99.90
2018-09-22T20:08:27.066Z,99.90
2018-09-22T20:10:55.618Z,99.90
2018-09-22T20:13:24.772Z,99.90
2018-09-22T20:15:55.321Z,99.90
2018-09-22T20:18:23.953Z,99.90
2018-09-22T20:20:52.450Z,99.90
2018-09-22T20:23:20.964Z,99.90
2018-09-22T20:25:49.469Z,99.90
2018-09-22T20:28:17.987Z,99.90
2018-09-22T20:30:46.444Z,99.90
2018-09-22T20:33:14.988Z,99.90
2018-09-22T20:35:43.501Z,99.90
2018-09-22T20:38:12.066Z,99.90
2018-09-22T20:40:40.640Z,99.90
2018-09-22T20:43:09.620Z,99.90
2018-09-22T20:45:38.315Z,99.90
2018-09-22T20:48:06.838Z,99.90
2018-09-22T20:50:35.392Z,99.90
2018-09-22T20:53:03.782Z,99.90
2018-09-22T20:55:32.958Z,99.90
2018-09-22T20:58:01.477Z,99.90
2018-09-22T21:00:30.030Z,99.90
2018-09-22T21:02:58.480Z,99.90
2018-09-22T21:05:26.966Z,99.90
2018-09-22T21:07:55.447Z,99.90
2018-09-22T21:10:24.261Z,99.90
2018-09-22T21:12:53.089Z,99.90
2018-09-22T21:15:22.091Z,99.90
2018-09-22T21:17:50.575Z,99.90
2018-09-22T21:20:19.078Z,99.90
2018-09-22T21:22:47.687Z,99.90
2018-09-22T21:25:16.143Z,99.90
2018-09-22T21:27:44.683Z,99.90
2018-09-22T21:30:13.811Z,99.90
2018-09-22T21:32:42.282Z,99.90
2018-09-22T21:35:10.743Z,99.90
2018-09-22T21:37:39.292Z,99.90
2018-09-22T21:40:07.845Z,99.90
2018-09-22T21:42:36.343Z,99.90
2018-09-22T21:45:05.439Z,99.90
2018-09-22T21:47:33.913Z,99.90
2018-09-22T21:50:02.454Z,99.90
2018-09-22T21:52:31.010Z,99.90
2018-09-22T21:54:59.468Z,99.90
2018-09-22T21:57:27.961Z,99.90
2018-09-22T21:59:56.538Z,99.90
2018-09-22T22:02:25.010Z,99.90
2018-09-22T22:04:53.499Z,99.90
2018-09-22T22:07:22.051Z,99.90
2018-09-22T22:09:50.502Z,99.90
2018-09-22T22:12:19.053Z,99.90
2018-09-22T22:14:47.558Z,99.90
2018-09-22T22:17:16.094Z,99.90
2018-09-22T22:19:44.735Z,99.90
2018-09-22T22:22:13.582Z,99.90
2018-09-22T22:24:42.067Z,99.90
2018-09-22T22:27:10.575Z,99.90
2018-09-22T22:29:39.052Z,99.90
2018-09-22T22:32:08.295Z,99.90
2018-09-22T22:34:36.778Z,99.90
2018-09-22T22:37:05.300Z,99.90
2018-09-22T22:39:33.926Z,99.90
2018-09-22T22:42:02.445Z,99.90
2018-09-22T22:44:30.928Z,99.90
2018-09-22T22:46:59.439Z,99.90
2018-09-22T22:49:27.932Z,99.90
2018-09-22T22:51:56.391Z,99.90
2018-09-22T22:54:24.918Z,99.90
2018-09-22T22:56:53.390Z,99.90
2018-09-22T22:59:21.990Z,99.90
2018-09-22T23:01:50.515Z,99.90
2018-09-22T23:04:19.050Z,99.90
2018-09-22T23:06:47.539Z,99.90
2018-09-22T23:09:16.106Z,99.90
2018-09-22T23:11:44.642Z,99.90
2018-09-22T23:14:13.178Z,99.90
2018-09-22T23:16:41.790Z,99.90
2018-09-22T23:19:10.359Z,99.90
2018-09-22T23:21:38.822Z,99.90
2018-09-22T23:24:07.510Z,99.90
2018-09-22T23:26:35.990Z,99.90
2018-09-22T23:29:04.463Z,99.90
2018-09-22T23:31:33.530Z,99.90
2018-09-22T23:34:03.414Z,99.90
2018-09-22T23:36:31.913Z,99.90
2018-09-22T23:39:00.406Z,99.90
2018-09-22T23:41:28.889Z,99.90
2018-09-22T23:43:58.587Z,99.90
2018-09-22T23:46:27.278Z,99.90
2018-09-22T23:48:55.733Z,99.90
2018-09-22T23:51:25.547Z,99.90
2018-09-22T23:53:56.159Z,99.90
2018-09-22T23:56:24.655Z,99.90
2018-09-22T23:58:53.132Z,99.90
